createdAt,value
2022-11-13T00:01:42.501Z,5.30
2022-11-13T00:04:10.734Z,5.20
2022-11-13T00:06:37.394Z,5.40
2022-11-13T00:09:04.038Z,5.40
2022-11-13T00:11:30.653Z,5.40
2022-11-13T00:13:57.333Z,5.40
2022-11-13T00:16:23.930Z,5.40
2022-11-13T00:18:50.598Z,5.30
2022-11-13T00:21:18.814Z,5.40
2022-11-13T00:23:45.474Z,5.80
2022-11-13T00:26:12.156Z,5.20
2022-11-13T00:28:38.744Z,5.20
2022-11-13T00:31:05.727Z,5.10
2022-11-13T00:34:01.913Z,5.10
2022-11-13T00:36:26.044Z,5.10
2022-11-13T00:38:53.994Z,5.00
2022-11-13T00:41:20.694Z,5.00
2022-11-13T00:43:47.379Z,5.10
2022-11-13T00:46:13.994Z,5.10
2022-11-13T00:48:40.679Z,5.10
2022-11-13T00:51:07.278Z,5.20
2022-11-13T00:53:33.895Z,5.10
2022-11-13T00:56:00.576Z,5.00
2022-11-13T00:58:27.627Z,5.00
2022-11-13T01:00:54.611Z,5.50
2022-11-13T01:03:21.261Z,4.90
2022-11-13T01:05:48.218Z,4.90
2022-11-13T01:08:14.947Z,4.90
2022-11-13T01:10:43.188Z,4.90
2022-11-13T01:13:10.263Z,3.70
2022-11-13T01:15:40.578Z,4.90
2022-11-13T01:18:07.182Z,4.80
2022-11-13T01:20:34.046Z,4.80
2022-11-13T01:23:00.982Z,4.80
2022-11-13T01:25:27.871Z,4.90
2022-11-13T01:27:54.518Z,4.90
2022-11-13T01:30:21.156Z,5.00
2022-11-13T01:32:47.825Z,5.00
2022-11-13T01:35:14.512Z,5.00
2022-11-13T01:37:41.154Z,4.90
2022-11-13T01:40:08.044Z,4.90
2022-11-13T01:42:34.639Z,4.90
2022-11-13T01:45:02.354Z,5.00
2022-11-13T01:47:28.989Z,4.90
2022-11-13T01:49:56.334Z,4.90
2022-11-13T01:52:24.376Z,4.90
2022-11-13T01:54:52.227Z,4.90
2022-11-13T01:57:18.813Z,4.90
2022-11-13T01:59:48.017Z,5.30
2022-11-13T02:02:14.630Z,5.10
2022-11-13T02:04:41.231Z,4.90
2022-11-13T02:07:08.554Z,5.00
2022-11-13T02:09:36.020Z,4.90
2022-11-13T02:12:02.626Z,5.00
2022-11-13T02:14:29.394Z,4.90
2022-11-13T02:16:57.124Z,5.00
2022-11-13T02:19:28.337Z,5.00
2022-11-13T02:21:57.967Z,5.00
2022-11-13T02:24:24.648Z,5.00
2022-11-13T02:26:51.334Z,5.10
2022-11-13T02:29:17.970Z,5.10
2022-11-13T02:31:44.577Z,5.10
2022-11-13T02:34:11.197Z,5.20
2022-11-13T02:36:37.844Z,5.20
2022-11-13T02:39:05.362Z,5.20
2022-11-13T02:41:32.117Z,5.20
2022-11-13T02:43:58.780Z,5.50
2022-11-13T02:46:25.639Z,5.20
2022-11-13T02:48:52.259Z,5.20
2022-11-13T02:51:18.983Z,5.20
2022-11-13T02:53:45.589Z,5.20
2022-11-13T02:56:12.193Z,5.20
2022-11-13T02:58:38.817Z,5.20
2022-11-13T03:01:05.526Z,5.30
2022-11-13T03:03:56.419Z,5.30
2022-11-13T03:06:18.730Z,5.30
2022-11-13T03:08:45.356Z,5.20
2022-11-13T03:11:12.007Z,5.20
2022-11-13T03:13:38.689Z,5.30
2022-11-13T03:16:12.595Z,5.30
2022-11-13T03:18:39.293Z,5.20
2022-11-13T03:21:06.790Z,5.10
2022-11-13T03:23:33.412Z,5.10
2022-11-13T03:26:18.268Z,5.00
2022-11-13T03:28:44.956Z,4.90
2022-11-13T03:31:11.602Z,4.80
2022-11-13T03:33:38.221Z,4.80
2022-11-13T03:36:05.070Z,4.70
2022-11-13T03:38:31.875Z,4.70
2022-11-13T03:40:59.391Z,4.70
2022-11-13T03:43:26.075Z,4.70
2022-11-13T03:45:52.717Z,4.80
2022-11-13T03:48:19.402Z,4.80
2022-11-13T03:50:46.916Z,4.90
2022-11-13T03:53:13.851Z,4.90
2022-11-13T03:55:40.502Z,5.00
2022-11-13T03:58:07.152Z,5.10
2022-11-13T04:00:33.832Z,5.10
2022-11-13T04:03:00.461Z,5.10
2022-11-13T04:05:27.176Z,5.20
2022-11-13T04:07:53.845Z,5.20
2022-11-13T04:10:20.528Z,5.30
2022-11-13T04:12:47.175Z,5.30
2022-11-13T04:15:13.836Z,5.50
2022-11-13T04:17:40.466Z,5.40
2022-11-13T04:20:07.494Z,5.50
2022-11-13T04:22:34.119Z,5.50
2022-11-13T04:25:00.739Z,5.50
2022-11-13T04:27:27.357Z,5.60
2022-11-13T04:29:54.039Z,6.00
2022-11-13T04:32:20.686Z,5.70
2022-11-13T04:34:47.345Z,5.70
2022-11-13T04:37:14.058Z,5.70
2022-11-13T04:39:40.917Z,5.80
2022-11-13T04:42:27.706Z,5.80
2022-11-13T04:44:54.339Z,5.80
2022-11-13T04:47:20.989Z,5.80
2022-11-13T04:49:47.581Z,5.80
2022-11-13T04:52:14.306Z,5.90
2022-11-13T04:54:40.941Z,5.90
2022-11-13T04:57:07.541Z,5.80
2022-11-13T04:59:34.151Z,5.90
2022-11-13T05:02:00.812Z,5.90
2022-11-13T05:04:27.482Z,5.90
2022-11-13T05:06:54.193Z,6.00
2022-11-13T05:09:20.902Z,6.00
2022-11-13T05:11:47.521Z,6.00
2022-11-13T05:14:14.138Z,6.00
2022-11-13T05:16:40.775Z,6.00
2022-11-13T05:19:07.469Z,6.00
2022-11-13T05:21:34.768Z,6.00
2022-11-13T05:24:01.372Z,5.90
2022-11-13T05:26:28.100Z,6.00
2022-11-13T05:28:58.596Z,6.00
2022-11-13T05:31:25.381Z,5.90
2022-11-13T05:33:52.194Z,5.90
2022-11-13T05:36:19.099Z,6.00
2022-11-13T05:38:45.772Z,5.90
2022-11-13T05:41:13.239Z,6.00
2022-11-13T05:43:40.009Z,6.00
2022-11-13T05:46:13.502Z,5.90
2022-11-13T05:48:40.424Z,5.90
2022-11-13T05:51:07.929Z,5.90
2022-11-13T05:53:35.432Z,5.90
2022-11-13T05:56:02.634Z,5.90
2022-11-13T05:58:29.690Z,5.90
2022-11-13T06:01:08.686Z,5.80
2022-11-13T06:03:35.330Z,5.80
2022-11-13T06:06:02.127Z,5.70
2022-11-13T06:08:28.994Z,5.80
2022-11-13T06:11:02.445Z,5.70
2022-11-13T06:13:29.089Z,5.60
2022-11-13T06:15:59.938Z,5.60
2022-11-13T06:18:27.008Z,5.60
2022-11-13T06:20:53.679Z,6.00
2022-11-13T06:23:20.287Z,5.40
2022-11-13T06:25:46.997Z,5.30
2022-11-13T06:28:13.631Z,5.20
2022-11-13T06:30:40.248Z,5.10
2022-11-13T06:33:06.866Z,4.90
2022-11-13T06:35:33.821Z,5.00
2022-11-13T06:38:01.244Z,4.90
2022-11-13T06:40:27.888Z,4.80
2022-11-13T06:42:54.504Z,4.80
2022-11-13T06:45:21.191Z,4.90
2022-11-13T06:47:47.805Z,4.90
2022-11-13T06:50:14.461Z,4.90
2022-11-13T06:52:41.095Z,4.90
2022-11-13T06:55:07.764Z,4.90
2022-11-13T06:57:35.032Z,5.00
2022-11-13T07:00:01.644Z,5.00
2022-11-13T07:02:28.295Z,5.10
2022-11-13T07:04:55.006Z,5.40
2022-11-13T07:07:21.621Z,5.00
2022-11-13T07:09:48.278Z,5.10
2022-11-13T07:12:15.004Z,5.10
2022-11-13T07:14:41.665Z,5.10
2022-11-13T07:17:10.116Z,5.10
2022-11-13T07:19:37.274Z,5.10
2022-11-13T07:22:03.962Z,5.10
2022-11-13T07:24:30.575Z,5.20
2022-11-13T07:26:57.206Z,5.30
2022-11-13T07:29:23.811Z,5.20
2022-11-13T07:31:50.550Z,5.20
2022-11-13T07:34:17.184Z,5.30
2022-11-13T07:36:43.792Z,5.30
2022-11-13T07:39:10.445Z,5.30
2022-11-13T07:41:37.220Z,5.30
2022-11-13T07:44:08.859Z,5.30
2022-11-13T07:46:36.077Z,5.30
2022-11-13T07:49:02.705Z,5.40
2022-11-13T07:51:29.337Z,5.40
2022-11-13T07:53:55.979Z,5.40
2022-11-13T07:56:23.463Z,5.40
2022-11-13T07:58:50.260Z,5.50
2022-11-13T08:01:17.018Z,5.50
2022-11-13T08:03:43.720Z,5.50
2022-11-13T08:06:10.557Z,5.50
2022-11-13T08:08:37.216Z,5.50
2022-11-13T08:11:07.348Z,5.50
2022-11-13T08:13:34.359Z,5.60
2022-11-13T08:16:01.230Z,5.50
2022-11-13T08:18:28.592Z,5.60
2022-11-13T08:20:55.418Z,5.90
2022-11-13T08:23:22.038Z,5.70
2022-11-13T08:25:48.806Z,5.80
2022-11-13T08:28:15.389Z,6.20
2022-11-13T08:30:43.184Z,5.90
2022-11-13T08:33:09.866Z,5.90
2022-11-13T08:35:36.533Z,6.00
2022-11-13T08:38:04.000Z,6.00
2022-11-13T08:40:30.683Z,6.00
2022-11-13T08:43:01.010Z,6.10
2022-11-13T08:45:27.895Z,6.00
2022-11-13T08:47:54.532Z,6.00
2022-11-13T08:50:21.127Z,6.00
2022-11-13T08:52:47.832Z,6.00
2022-11-13T08:55:14.535Z,6.20
2022-11-13T08:57:41.248Z,6.10
2022-11-13T09:00:08.170Z,6.20
2022-11-13T09:02:34.781Z,6.30
2022-11-13T09:05:01.520Z,6.40
2022-11-13T09:07:28.152Z,6.50
2022-11-13T09:09:54.818Z,6.60
2022-11-13T09:12:21.597Z,6.70
2022-11-13T09:14:48.252Z,6.80
2022-11-13T09:17:14.869Z,6.80
2022-11-13T09:19:41.545Z,7.00
2022-11-13T09:22:10.210Z,7.00
2022-11-13T09:24:36.884Z,7.00
2022-11-13T09:27:03.522Z,7.10
2022-11-13T09:29:30.368Z,7.30
2022-11-13T09:31:56.994Z,7.40
2022-11-13T09:34:25.382Z,7.50
2022-11-13T09:36:52.037Z,7.60
2022-11-13T09:39:18.666Z,7.70
2022-11-13T09:41:58.674Z,7.80
2022-11-13T09:44:30.134Z,8.00
2022-11-13T09:47:02.653Z,7.80
2022-11-13T09:49:33.035Z,7.90
2022-11-13T09:52:05.227Z,7.90
2022-11-13T09:54:33.256Z,7.80
2022-11-13T09:57:03.116Z,7.80
2022-11-13T09:59:35.090Z,7.90
2022-11-13T10:02:07.747Z,8.00
2022-11-13T10:04:37.490Z,7.90
2022-11-13T10:07:24.448Z,8.00
2022-11-13T10:09:54.038Z,8.10
2022-11-13T10:12:20.671Z,8.20
2022-11-13T10:14:48.454Z,8.20
2022-11-13T10:17:19.240Z,8.30
2022-11-13T10:19:50.342Z,8.30
2022-11-13T10:22:36.812Z,8.40
2022-11-13T10:25:11.784Z,8.30
2022-11-13T10:27:38.762Z,8.30
2022-11-13T10:30:13.076Z,8.30
2022-11-13T10:32:39.682Z,8.30
2022-11-13T10:35:06.309Z,8.50
2022-11-13T10:37:51.891Z,8.40
2022-11-13T10:40:28.265Z,8.60
2022-11-13T10:42:54.893Z,8.70
2022-11-13T10:45:21.634Z,8.80
2022-11-13T10:48:04.166Z,8.80
2022-11-13T10:50:32.232Z,8.80
2022-11-13T10:52:58.979Z,8.90
2022-11-13T10:55:25.587Z,9.00
2022-11-13T10:57:56.713Z,9.20
2022-11-13T11:00:23.605Z,9.20
2022-11-13T11:02:50.639Z,9.20
2022-11-13T11:05:21.545Z,9.20
2022-11-13T11:07:48.428Z,9.20
2022-11-13T11:10:21.227Z,9.10
2022-11-13T11:12:54.674Z,9.20
2022-11-13T11:15:25.511Z,9.20
2022-11-13T11:17:53.996Z,9.30
2022-11-13T11:20:23.921Z,9.50
2022-11-13T11:22:55.357Z,9.70
2022-11-13T11:25:25.116Z,9.80
2022-11-13T11:28:03.524Z,10.00
2022-11-13T11:30:33.149Z,10.10
2022-11-13T11:33:05.674Z,10.20
2022-11-13T11:36:10.983Z,10.30
2022-11-13T11:38:41.395Z,10.40
2022-11-13T11:41:16.504Z,10.40
2022-11-13T11:43:54.500Z,10.40
2022-11-13T11:46:22.725Z,10.50
2022-11-13T11:48:49.686Z,10.50
2022-11-13T11:51:22.685Z,10.60
2022-11-13T11:53:58.083Z,10.70
2022-11-13T11:56:35.312Z,10.70
2022-11-13T11:59:04.459Z,10.60
2022-11-13T12:01:31.096Z,10.60
2022-11-13T12:04:00.202Z,10.60
2022-11-13T12:06:26.804Z,10.60
2022-11-13T12:08:56.472Z,10.70
2022-11-13T12:11:23.070Z,10.70
2022-11-13T12:14:01.664Z,10.80
2022-11-13T12:16:47.266Z,10.80
2022-11-13T12:19:13.863Z,10.80
2022-11-13T12:21:43.594Z,10.80
2022-11-13T12:24:17.200Z,10.90
2022-11-13T12:26:46.388Z,10.90
2022-11-13T12:29:17.059Z,10.90
2022-11-13T12:31:47.630Z,10.90
2022-11-13T12:34:28.954Z,10.90
2022-11-13T12:36:56.117Z,10.80
2022-11-13T12:39:28.879Z,10.80
2022-11-13T12:42:14.207Z,10.70
2022-11-13T12:44:53.324Z,10.70
2022-11-13T12:47:19.941Z,10.70
2022-11-13T12:49:46.535Z,10.80
2022-11-13T12:52:16.236Z,10.80
2022-11-13T12:54:42.845Z,10.80
2022-11-13T12:57:12.565Z,10.80
2022-11-13T12:59:43.486Z,10.80
2022-11-13T13:02:17.816Z,10.80
2022-11-13T13:05:01.223Z,10.80
2022-11-13T13:07:30.862Z,10.90
2022-11-13T13:10:16.340Z,11.00
2022-11-13T13:12:42.942Z,11.00
2022-11-13T13:15:12.754Z,10.90
2022-11-13T13:17:41.049Z,11.00
2022-11-13T13:20:28.030Z,11.00
2022-11-13T13:22:58.438Z,11.00
2022-11-13T13:25:26.926Z,11.00
2022-11-13T13:28:19.567Z,11.00
2022-11-13T13:31:05.895Z,10.70
2022-11-13T13:33:35.687Z,11.00
2022-11-13T13:36:11.438Z,11.00
2022-11-13T13:38:49.355Z,11.00
2022-11-13T13:41:37.169Z,11.00
2022-11-13T13:44:03.831Z,10.80
2022-11-13T13:46:31.413Z,10.80
2022-11-13T13:49:01.928Z,10.70
2022-11-13T13:51:29.773Z,10.70
2022-11-13T13:53:56.820Z,10.60
2022-11-13T13:56:24.063Z,10.50
2022-11-13T13:58:50.692Z,10.40
2022-11-13T14:01:26.581Z,10.30
2022-11-13T14:04:03.300Z,10.30
2022-11-13T14:06:30.031Z,10.20
2022-11-13T14:08:56.884Z,10.20
2022-11-13T14:11:29.437Z,10.20
2022-11-13T14:14:07.599Z,10.10
2022-11-13T14:16:34.583Z,10.00
2022-11-13T14:19:07.296Z,10.00
2022-11-13T14:21:35.269Z,9.80
2022-11-13T14:24:03.612Z,9.70
2022-11-13T14:26:30.738Z,9.70
2022-11-13T14:29:01.233Z,9.60
2022-11-13T14:31:30.044Z,9.50
2022-11-13T14:33:57.026Z,9.50
2022-11-13T14:36:31.550Z,9.40
2022-11-13T14:38:58.470Z,9.30
2022-11-13T14:41:31.774Z,9.20
2022-11-13T14:43:58.492Z,9.20
2022-11-13T14:46:29.528Z,9.10
2022-11-13T14:48:56.302Z,9.10
2022-11-13T14:51:24.574Z,9.10
2022-11-13T14:54:08.981Z,9.00
2022-11-13T14:56:36.899Z,8.90
2022-11-13T14:59:14.349Z,8.90
2022-11-13T15:01:55.219Z,8.80
2022-11-13T15:04:21.855Z,8.80
2022-11-13T15:06:55.700Z,8.80
2022-11-13T15:09:23.271Z,8.80
2022-11-13T15:11:49.978Z,8.70
2022-11-13T15:14:17.714Z,8.70
2022-11-13T15:16:52.539Z,8.60
2022-11-13T15:19:34.578Z,8.60
2022-11-13T15:24:48.155Z,8.50
2022-11-13T15:27:18.305Z,8.60
2022-11-13T15:29:44.990Z,8.40
2022-11-13T15:32:13.104Z,8.40
2022-11-13T15:34:39.941Z,8.30
2022-11-13T15:37:13.346Z,8.30
2022-11-13T15:39:40.083Z,8.30
2022-11-13T15:42:07.633Z,8.30
2022-11-13T15:44:34.478Z,8.20
2022-11-13T15:47:01.181Z,8.20
2022-11-13T15:49:27.852Z,8.10
2022-11-13T15:51:54.761Z,8.20
2022-11-13T15:54:24.191Z,8.10
2022-11-13T15:56:50.899Z,8.20
2022-11-13T15:59:17.624Z,8.10
2022-11-13T16:01:44.467Z,8.10
2022-11-13T16:04:13.219Z,8.10
2022-11-13T16:06:40.407Z,8.10
2022-11-13T16:09:09.670Z,8.00
2022-11-13T16:11:36.723Z,7.90
2022-11-13T16:14:05.818Z,7.90
2022-11-13T16:16:36.633Z,7.90
2022-11-13T16:19:04.344Z,7.80
2022-11-13T16:21:33.597Z,7.70
2022-11-13T16:24:00.646Z,7.60
2022-11-13T16:26:27.791Z,7.60
2022-11-13T16:31:41.759Z,7.10
2022-11-13T16:34:08.767Z,7.50
2022-11-13T16:36:35.522Z,7.40
2022-11-13T16:39:02.717Z,7.40
2022-11-13T16:41:30.495Z,7.40
2022-11-13T16:43:57.363Z,7.30
2022-11-13T16:46:29.520Z,7.30
2022-11-13T16:48:56.324Z,7.30
2022-11-13T16:51:23.049Z,7.30
2022-11-13T16:53:49.787Z,7.30
2022-11-13T16:56:17.556Z,7.40
2022-11-13T16:58:44.378Z,7.20
2022-11-13T17:01:14.624Z,7.20
2022-11-13T17:03:42.386Z,7.20
2022-11-13T17:06:22.503Z,7.30
2022-11-13T17:08:53.193Z,7.20
2022-11-13T17:11:20.012Z,6.70
2022-11-13T17:13:53.288Z,7.50
2022-11-13T17:16:20.085Z,7.10
2022-11-13T17:18:48.461Z,7.10
2022-11-13T17:21:18.467Z,7.10
2022-11-13T17:23:45.183Z,7.10
2022-11-13T17:26:12.104Z,7.10
2022-11-13T17:28:39.001Z,7.00
2022-11-13T17:31:06.750Z,7.00
2022-11-13T17:33:33.607Z,7.50
2022-11-13T17:36:01.138Z,6.90
2022-11-13T17:38:27.983Z,7.60
2022-11-13T17:40:54.799Z,7.00
2022-11-13T17:43:21.762Z,6.90
2022-11-13T17:45:48.936Z,6.90
2022-11-13T17:48:18.440Z,6.80
2022-11-13T17:50:45.170Z,6.80
2022-11-13T17:53:11.854Z,6.80
2022-11-13T17:55:38.765Z,6.80
2022-11-13T17:58:05.596Z,6.80
2022-11-13T18:00:32.524Z,6.80
2022-11-13T18:02:59.408Z,6.80
2022-11-13T18:05:26.373Z,7.40
2022-11-13T18:07:53.027Z,6.80
2022-11-13T18:10:19.671Z,6.70
2022-11-13T18:12:46.431Z,6.80
2022-11-13T18:15:16.853Z,6.80
2022-11-13T18:17:43.524Z,6.70
2022-11-13T18:20:10.315Z,6.70
2022-11-13T18:22:37.131Z,6.80
2022-11-13T18:25:03.989Z,7.30
2022-11-13T18:27:30.790Z,6.70
2022-11-13T18:29:57.593Z,6.70
2022-11-13T18:32:29.608Z,7.30
2022-11-13T18:34:56.317Z,7.00
2022-11-13T18:37:23.926Z,6.70
2022-11-13T18:39:50.723Z,6.70
2022-11-13T18:42:17.472Z,6.60
2022-11-13T18:44:44.147Z,7.50
2022-11-13T18:47:10.797Z,6.60
2022-11-13T18:49:37.419Z,6.70
2022-11-13T18:52:04.075Z,6.50
2022-11-13T18:54:30.722Z,6.60
2022-11-13T18:56:57.347Z,6.60
2022-11-13T18:59:23.937Z,6.50
2022-11-13T19:01:50.689Z,6.50
2022-11-13T19:04:24.793Z,6.40
2022-11-13T19:06:51.788Z,6.50
2022-11-13T19:10:23.366Z,6.40
2022-11-13T19:12:24.124Z,6.40
2022-11-13T19:14:50.795Z,7.20
2022-11-13T19:17:22.366Z,6.40
2022-11-13T19:19:49.135Z,6.30
2022-11-13T19:22:15.772Z,6.30
2022-11-13T19:24:42.375Z,6.30
2022-11-13T19:27:08.999Z,6.20
2022-11-13T19:29:35.658Z,6.20
2022-11-13T19:32:02.351Z,6.10
2022-11-13T19:34:30.068Z,6.00
2022-11-13T19:36:56.752Z,6.00
2022-11-13T19:39:23.715Z,5.80
2022-11-13T19:41:50.337Z,5.80
2022-11-13T19:44:16.990Z,5.80
2022-11-13T19:46:45.049Z,5.70
2022-11-13T19:49:11.840Z,5.70
2022-11-13T19:51:38.490Z,5.20
2022-11-13T19:54:05.372Z,5.60
2022-11-13T19:56:32.019Z,5.60
2022-11-13T19:58:58.782Z,5.50
2022-11-13T20:01:28.937Z,5.50
2022-11-13T20:04:01.940Z,5.60
2022-11-13T20:06:29.011Z,5.50
2022-11-13T20:08:55.690Z,5.50
2022-11-13T20:11:22.597Z,5.70
2022-11-13T20:13:49.246Z,5.50
2022-11-13T20:16:18.956Z,5.50
2022-11-13T20:18:45.741Z,5.60
2022-11-13T20:21:12.760Z,5.50
2022-11-13T20:23:39.437Z,5.50
2022-11-13T20:26:07.701Z,5.50
2022-11-13T20:28:34.493Z,5.50
2022-11-13T20:31:04.839Z,5.50
2022-11-13T20:33:32.835Z,5.50
2022-11-13T20:35:59.646Z,5.50
2022-11-13T20:38:28.053Z,5.50
2022-11-13T20:40:54.941Z,5.50
2022-11-13T20:43:24.825Z,6.00
2022-11-13T20:45:56.494Z,5.40
2022-11-13T20:48:23.215Z,5.50
2022-11-13T20:50:49.880Z,5.40
2022-11-13T20:56:32.908Z,5.40
2022-11-13T21:02:01.854Z,5.40
2022-11-13T21:04:28.675Z,5.40
2022-11-13T21:06:55.643Z,5.40
2022-11-13T21:09:25.514Z,5.40
2022-11-13T21:11:52.261Z,5.40
2022-11-13T21:14:18.987Z,5.40
2022-11-13T21:16:45.697Z,5.40
2022-11-13T21:19:12.365Z,5.40
2022-11-13T21:21:39.524Z,5.40
2022-11-13T21:24:07.717Z,5.40
2022-11-13T21:26:34.410Z,5.40
2022-11-13T21:29:01.136Z,5.30
2022-11-13T21:31:29.061Z,5.30
2022-11-13T21:33:55.715Z,5.40
2022-11-13T21:36:23.438Z,5.40
2022-11-13T21:38:50.651Z,5.40
2022-11-13T21:41:24.847Z,5.40
2022-11-13T21:44:04.973Z,5.40
2022-11-13T21:46:35.632Z,5.50
2022-11-13T21:49:06.116Z,6.30
2022-11-13T21:51:33.147Z,5.50
2022-11-13T21:53:59.981Z,5.50
2022-11-13T21:56:26.939Z,5.50
2022-11-13T21:58:53.679Z,5.80
2022-11-13T22:01:20.338Z,5.50
2022-11-13T22:03:46.986Z,5.60
2022-11-13T22:06:14.460Z,5.60
2022-11-13T22:08:41.243Z,5.60
2022-11-13T22:11:07.895Z,5.60
2022-11-13T22:13:34.633Z,5.60
2022-11-13T22:16:04.864Z,5.60
2022-11-13T22:18:31.721Z,5.60
2022-11-13T22:21:02.430Z,5.60
2022-11-13T22:23:29.106Z,5.60
2022-11-13T22:26:05.534Z,5.60
2022-11-13T22:28:32.612Z,5.60
2022-11-13T22:30:59.464Z,5.70
2022-11-13T22:33:26.698Z,5.60
2022-11-13T22:35:53.546Z,5.60
2022-11-13T22:38:20.136Z,5.60
2022-11-13T22:40:46.736Z,5.80
2022-11-13T22:43:13.407Z,5.60
2022-11-13T22:45:40.053Z,5.60
2022-11-13T22:48:06.747Z,5.60
2022-11-13T22:50:34.642Z,5.70
2022-11-13T22:53:01.243Z,5.70
2022-11-13T22:55:27.882Z,5.70
2022-11-13T22:57:54.521Z,5.60
2022-11-13T23:00:21.235Z,5.60
2022-11-13T23:02:47.880Z,5.60
2022-11-13T23:05:14.577Z,5.60
2022-11-13T23:07:41.248Z,5.60
2022-11-13T23:10:08.326Z,5.60
2022-11-13T23:12:34.945Z,5.50
2022-11-13T23:15:01.556Z,5.50
2022-11-13T23:17:28.234Z,5.40
2022-11-13T23:19:54.833Z,5.40
2022-11-13T23:22:21.517Z,5.40
2022-11-13T23:24:48.417Z,5.40
2022-11-13T23:27:15.088Z,5.40
2022-11-13T23:29:55.235Z,5.80
2022-11-13T23:32:22.440Z,5.40
2022-11-13T23:35:04.192Z,5.50
2022-11-13T23:37:30.894Z,5.50
2022-11-13T23:40:00.091Z,5.50
2022-11-13T23:42:45.739Z,5.50
2022-11-13T23:45:13.586Z,5.50
2022-11-13T23:47:40.411Z,5.50
2022-11-13T23:50:07.770Z,5.40
2022-11-13T23:52:34.602Z,5.30
2022-11-13T23:55:01.317Z,5.30
2022-11-13T23:57:28.346Z,5.30
2022-11-13T23:59:55.218Z,5.30
